Seward Airport Seward US
ICAO: PAWD
IATA:
Category: Medium
Scheduled Services:

Elevation: 22 ft
TransAlt. 18000 ft.

Airport Communications:
ASOS:135.2
CTAF:122.9
KENAI RDO:122.6

PAWD Zoom In..

If you have problems with the map follow the link
https://www.worldairports.se/pages/airport.php?
ICAO=PAWD

Runways:

(A) RW 13 length 4533 ft width 100 ft
---- / hdg 127

(B) RW 16 length 2289 ft width 75 ft
---- / hdg 158

(C) RW 31 length 4533 ft width 100 ft
---- / hdg 307

(D) RW 34 length 2289 ft width 75 ft
---- / hdg 338

Location; PAWD
Day. 06 / Time. 13.13 Zulu
* Altimeter: 29.71
* Temperature: -04° c. -24.8°f.
* Wind from: 350° Speed 08 kn.
Dewpoint: -06° c.
Visibility: 10 Statute Miles.
Clouds: Overcast 3300 ft.

PAWD 061313Z AUTO 35008KT 10SM OVC033 M04/M06 A2971 RMK AO2 UPB1254E1257FZRAB1257E07 P0000 I1000 T10441061 TSNO


Wind From 350°
Speed 08 kn.

 
 
jpsmedia worldairports.se 2019   terms of use